sensor_id;sensor_type;location;lat;lon;timestamp;temperature;humidity
37300;DHT22;23184;51.902;12.836;2022-08-24T00:01:56;16.90;99.90
37300;DHT22;23184;51.902;12.836;2022-08-24T00:04:21;16.90;99.90
37300;DHT22;23184;51.902;12.836;2022-08-24T00:06:47;16.80;99.90
37300;DHT22;23184;51.902;12.836;2022-08-24T00:09:14;16.80;99.90
37300;DHT22;23184;51.902;12.836;2022-08-24T00:11:39;16.80;99.90
37300;DHT22;23184;51.902;12.836;2022-08-24T00:14:05;16.80;99.90
37300;DHT22;23184;51.902;12.836;2022-08-24T00:16:31;16.70;99.90
37300;DHT22;23184;51.902;12.836;2022-08-24T00:18:56;16.70;99.90
37300;DHT22;23184;51.902;12.836;2022-08-24T00:21:22;16.80;99.90
37300;DHT22;23184;51.902;12.836;2022-08-24T00:23:48;16.70;99.90
37300;DHT22;23184;51.902;12.836;2022-08-24T00:26:14;16.70;99.90
37300;DHT22;23184;51.902;12.836;2022-08-24T00:28:40;16.70;99.90
37300;DHT22;23184;51.902;12.836;2022-08-24T00:31:06;16.70;99.90
37300;DHT22;23184;51.902;12.836;2022-08-24T00:33:32;16.70;99.90
37300;DHT22;23184;51.902;12.836;2022-08-24T00:35:58;16.70;99.90
37300;DHT22;23184;51.902;12.836;2022-08-24T00:38:24;16.70;99.90
37300;DHT22;23184;51.902;12.836;2022-08-24T00:40:49;16.70;99.90
37300;DHT22;23184;51.902;12.836;2022-08-24T00:43:21;16.60;99.90
37300;DHT22;23184;51.902;12.836;2022-08-24T00:46:02;16.60;99.90
37300;DHT22;23184;51.902;12.836;2022-08-24T00:48:32;16.60;99.90
37300;DHT22;23184;51.902;12.836;2022-08-24T00:51:05;16.60;99.90
37300;DHT22;23184;51.902;12.836;2022-08-24T00:53:40;16.60;99.90
37300;DHT22;23184;51.902;12.836;2022-08-24T00:56:10;16.60;99.90
37300;DHT22;23184;51.902;12.836;2022-08-24T00:58:41;16.60;99.90
37300;DHT22;23184;51.902;12.836;2022-08-24T01:01:09;16.60;99.90
37300;DHT22;23184;51.902;12.836;2022-08-24T01:03:38;16.60;99.90
37300;DHT22;23184;51.902;12.836;2022-08-24T01:06:04;16.60;99.90
37300;DHT22;23184;51.902;12.836;2022-08-24T01:08:30;16.60;99.90
37300;DHT22;23184;51.902;12.836;2022-08-24T01:10:59;16.50;99.90
37300;DHT22;23184;51.902;12.836;2022-08-24T01:13:25;16.50;99.90
37300;DHT22;23184;51.902;12.836;2022-08-24T01:15:54;16.50;99.90
37300;DHT22;23184;51.902;12.836;2022-08-24T01:18:23;16.50;99.90
37300;DHT22;23184;51.902;12.836;2022-08-24T01:23:46;16.50;99.90
37300;DHT22;23184;51.902;12.836;2022-08-24T01:26:36;16.50;99.90
37300;DHT22;23184;51.902;12.836;2022-08-24T01:29:09;16.40;99.90
37300;DHT22;23184;51.902;12.836;2022-08-24T01:31:35;16.50;99.90
37300;DHT22;23184;51.902;12.836;2022-08-24T01:34:01;16.60;99.90
37300;DHT22;23184;51.902;12.836;2022-08-24T01:36:35;16.70;99.90
37300;DHT22;23184;51.902;12.836;2022-08-24T01:39:09;16.80;99.90
37300;DHT22;23184;51.902;12.836;2022-08-24T01:41:56;16.90;99.90
37300;DHT22;23184;51.902;12.836;2022-08-24T01:44:24;16.90;99.90
37300;DHT22;23184;51.902;12.836;2022-08-24T01:46:52;16.90;99.90
37300;DHT22;23184;51.902;12.836;2022-08-24T01:49:19;17.00;99.90
37300;DHT22;23184;51.902;12.836;2022-08-24T01:51:45;17.00;99.90
37300;DHT22;23184;51.902;12.836;2022-08-24T01:54:11;17.00;99.90
37300;DHT22;23184;51.902;12.836;2022-08-24T01:56:37;16.90;99.90
37300;DHT22;23184;51.902;12.836;2022-08-24T01:59:02;16.90;99.90
37300;DHT22;23184;51.902;12.836;2022-08-24T02:01:31;16.80;99.90
37300;DHT22;23184;51.902;12.836;2022-08-24T02:03:59;16.70;99.90
37300;DHT22;23184;51.902;12.836;2022-08-24T02:06:26;16.60;99.90
37300;DHT22;23184;51.902;12.836;2022-08-24T02:08:52;16.50;99.90
37300;DHT22;23184;51.902;12.836;2022-08-24T02:11:17;16.50;99.90
37300;DHT22;23184;51.902;12.836;2022-08-24T02:13:43;16.50;99.90
37300;DHT22;23184;51.902;12.836;2022-08-24T02:16:08;16.50;99.90
37300;DHT22;23184;51.902;12.836;2022-08-24T02:18:35;16.40;99.90
37300;DHT22;23184;51.902;12.836;2022-08-24T02:21:01;16.40;99.90
37300;DHT22;23184;51.902;12.836;2022-08-24T02:23:26;16.40;99.90
37300;DHT22;23184;51.902;12.836;2022-08-24T02:25:54;16.50;99.90
37300;DHT22;23184;51.902;12.836;2022-08-24T02:28:21;16.50;99.90
37300;DHT22;23184;51.902;12.836;2022-08-24T02:30:47;16.50;99.90
37300;DHT22;23184;51.902;12.836;2022-08-24T02:33:13;16.50;99.90
37300;DHT22;23184;51.902;12.836;2022-08-24T02:35:39;16.50;99.90
37300;DHT22;23184;51.902;12.836;2022-08-24T02:38:06;16.50;99.90
37300;DHT22;23184;51.902;12.836;2022-08-24T02:40:33;16.50;99.90
37300;DHT22;23184;51.902;12.836;2022-08-24T02:42:58;16.60;99.90
37300;DHT22;23184;51.902;12.836;2022-08-24T02:45:24;16.60;99.90
37300;DHT22;23184;51.902;12.836;2022-08-24T02:47:49;16.50;99.90
37300;DHT22;23184;51.902;12.836;2022-08-24T02:50:16;16.40;99.90
37300;DHT22;23184;51.902;12.836;2022-08-24T02:52:42;16.40;99.90
37300;DHT22;23184;51.902;12.836;2022-08-24T02:55:11;16.30;99.90
37300;DHT22;23184;51.902;12.836;2022-08-24T02:57:37;16.30;99.90
37300;DHT22;23184;51.902;12.836;2022-08-24T03:00:06;16.20;99.90
37300;DHT22;23184;51.902;12.836;2022-08-24T03:02:32;16.20;99.90
37300;DHT22;23184;51.902;12.836;2022-08-24T03:04:58;16.10;99.90
37300;DHT22;23184;51.902;12.836;2022-08-24T03:07:23;16.10;99.90
37300;DHT22;23184;51.902;12.836;2022-08-24T03:09:48;15.90;99.90
37300;DHT22;23184;51.902;12.836;2022-08-24T03:12:14;15.90;99.90
37300;DHT22;23184;51.902;12.836;2022-08-24T03:14:39;15.80;99.90
37300;DHT22;23184;51.902;12.836;2022-08-24T03:17:05;15.80;99.90
37300;DHT22;23184;51.902;12.836;2022-08-24T03:19:31;15.80;99.90
37300;DHT22;23184;51.902;12.836;2022-08-24T03:21:57;15.80;99.90
37300;DHT22;23184;51.902;12.836;2022-08-24T03:24:23;15.80;99.90
37300;DHT22;23184;51.902;12.836;2022-08-24T03:26:48;15.80;99.90
37300;DHT22;23184;51.902;12.836;2022-08-24T03:29:14;15.70;99.90
37300;DHT22;23184;51.902;12.836;2022-08-24T03:31:40;15.70;99.90
37300;DHT22;23184;51.902;12.836;2022-08-24T03:34:05;15.70;99.90
37300;DHT22;23184;51.902;12.836;2022-08-24T03:36:31;15.70;99.90
37300;DHT22;23184;51.902;12.836;2022-08-24T03:38:57;15.60;99.90
37300;DHT22;23184;51.902;12.836;2022-08-24T03:41:22;15.60;99.90
37300;DHT22;23184;51.902;12.836;2022-08-24T03:43:48;15.60;99.90
37300;DHT22;23184;51.902;12.836;2022-08-24T03:46:16;15.70;99.90
37300;DHT22;23184;51.902;12.836;2022-08-24T03:48:42;15.70;99.90
37300;DHT22;23184;51.902;12.836;2022-08-24T03:51:17;15.70;99.90
37300;DHT22;23184;51.902;12.836;2022-08-24T03:53:44;15.70;99.90
37300;DHT22;23184;51.902;12.836;2022-08-24T03:56:10;15.70;99.90
37300;DHT22;23184;51.902;12.836;2022-08-24T03:58:37;15.70;99.90
37300;DHT22;23184;51.902;12.836;2022-08-24T04:01:04;15.60;99.90
37300;DHT22;23184;51.902;12.836;2022-08-24T04:03:29;15.50;99.90
37300;DHT22;23184;51.902;12.836;2022-08-24T04:05:55;15.50;99.90
37300;DHT22;23184;51.902;12.836;2022-08-24T04:08:20;15.50;99.90
37300;DHT22;23184;51.902;12.836;2022-08-24T04:10:46;15.50;99.90
37300;DHT22;23184;51.902;12.836;2022-08-24T04:13:12;15.40;99.90
37300;DHT22;23184;51.902;12.836;2022-08-24T04:15:39;15.40;99.90
37300;DHT22;23184;51.902;12.836;2022-08-24T04:18:05;15.50;99.90
37300;DHT22;23184;51.902;12.836;2022-08-24T04:20:39;15.60;99.90
37300;DHT22;23184;51.902;12.836;2022-08-24T04:23:06;15.70;99.90
37300;DHT22;23184;51.902;12.836;2022-08-24T04:25:40;15.80;99.90
37300;DHT22;23184;51.902;12.836;2022-08-24T04:28:06;15.80;99.90
37300;DHT22;23184;51.902;12.836;2022-08-24T04:30:32;15.90;99.90
37300;DHT22;23184;51.902;12.836;2022-08-24T04:32:57;15.90;99.90
37300;DHT22;23184;51.902;12.836;2022-08-24T04:35:23;15.70;99.90
37300;DHT22;23184;51.902;12.836;2022-08-24T04:37:49;15.40;99.90
37300;DHT22;23184;51.902;12.836;2022-08-24T04:40:14;15.40;99.90
37300;DHT22;23184;51.902;12.836;2022-08-24T04:42:40;15.40;99.90
37300;DHT22;23184;51.902;12.836;2022-08-24T04:45:05;15.40;99.90
37300;DHT22;23184;51.902;12.836;2022-08-24T04:47:31;15.40;99.90
37300;DHT22;23184;51.902;12.836;2022-08-24T04:49:56;15.40;99.90
37300;DHT22;23184;51.902;12.836;2022-08-24T04:52:22;15.50;99.90
37300;DHT22;23184;51.902;12.836;2022-08-24T04:54:48;15.70;99.90
37300;DHT22;23184;51.902;12.836;2022-08-24T04:57:13;15.80;99.90
37300;DHT22;23184;51.902;12.836;2022-08-24T04:59:39;15.80;99.90
37300;DHT22;23184;51.902;12.836;2022-08-24T05:02:05;15.90;99.90
37300;DHT22;23184;51.902;12.836;2022-08-24T05:04:31;15.90;99.90
37300;DHT22;23184;51.902;12.836;2022-08-24T05:06:56;16.10;99.90
37300;DHT22;23184;51.902;12.836;2022-08-24T05:09:22;16.10;99.90
37300;DHT22;23184;51.902;12.836;2022-08-24T05:11:47;16.10;99.90
37300;DHT22;23184;51.902;12.836;2022-08-24T05:14:13;16.10;99.90
37300;DHT22;23184;51.902;12.836;2022-08-24T05:16:39;16.20;99.90
37300;DHT22;23184;51.902;12.836;2022-08-24T05:19:05;16.20;99.90
37300;DHT22;23184;51.902;12.836;2022-08-24T05:21:32;16.40;99.90
37300;DHT22;23184;51.902;12.836;2022-08-24T05:23:57;16.50;99.90
37300;DHT22;23184;51.902;12.836;2022-08-24T05:26:24;16.60;99.90
37300;DHT22;23184;51.902;12.836;2022-08-24T05:28:59;16.70;99.90
37300;DHT22;23184;51.902;12.836;2022-08-24T05:31:27;16.90;99.90
37300;DHT22;23184;51.902;12.836;2022-08-24T05:33:53;17.00;99.90
37300;DHT22;23184;51.902;12.836;2022-08-24T05:36:26;17.10;99.90
37300;DHT22;23184;51.902;12.836;2022-08-24T05:38:54;17.30;99.90
37300;DHT22;23184;51.902;12.836;2022-08-24T05:41:21;17.40;99.90
37300;DHT22;23184;51.902;12.836;2022-08-24T05:43:47;17.40;99.90
37300;DHT22;23184;51.902;12.836;2022-08-24T05:46:13;17.40;99.90
37300;DHT22;23184;51.902;12.836;2022-08-24T05:48:39;17.50;99.90
37300;DHT22;23184;51.902;12.836;2022-08-24T05:51:06;17.50;99.90
37300;DHT22;23184;51.902;12.836;2022-08-24T05:53:32;17.60;99.90
37300;DHT22;23184;51.902;12.836;2022-08-24T05:56:01;17.60;99.90
37300;DHT22;23184;51.902;12.836;2022-08-24T05:58:26;17.60;99.90
37300;DHT22;23184;51.902;12.836;2022-08-24T06:00:52;17.70;99.90
37300;DHT22;23184;51.902;12.836;2022-08-24T06:03:17;17.90;99.90
37300;DHT22;23184;51.902;12.836;2022-08-24T06:05:44;17.90;99.90
37300;DHT22;23184;51.902;12.836;2022-08-24T06:08:10;18.00;99.90
37300;DHT22;23184;51.902;12.836;2022-08-24T06:10:40;18.00;99.90
37300;DHT22;23184;51.902;12.836;2022-08-24T06:13:07;18.00;99.90
37300;DHT22;23184;51.902;12.836;2022-08-24T06:15:33;17.90;99.90
37300;DHT22;23184;51.902;12.836;2022-08-24T06:17:59;17.90;99.90
37300;DHT22;23184;51.902;12.836;2022-08-24T06:20:24;17.90;99.90
37300;DHT22;23184;51.902;12.836;2022-08-24T06:22:50;18.00;99.90
37300;DHT22;23184;51.902;12.836;2022-08-24T06:25:15;18.10;99.90
37300;DHT22;23184;51.902;12.836;2022-08-24T06:27:59;18.20;99.90
37300;DHT22;23184;51.902;12.836;2022-08-24T06:30:25;18.30;99.90
37300;DHT22;23184;51.902;12.836;2022-08-24T06:32:50;18.30;99.90
37300;DHT22;23184;51.902;12.836;2022-08-24T06:35:16;18.40;99.90
37300;DHT22;23184;51.902;12.836;2022-08-24T06:37:41;18.50;99.90
37300;DHT22;23184;51.902;12.836;2022-08-24T06:40:08;18.60;99.90
37300;DHT22;23184;51.902;12.836;2022-08-24T06:42:34;18.70;99.90
37300;DHT22;23184;51.902;12.836;2022-08-24T06:45:00;18.80;99.90
37300;DHT22;23184;51.902;12.836;2022-08-24T06:47:26;18.90;99.90
37300;DHT22;23184;51.902;12.836;2022-08-24T06:49:51;18.90;99.90
37300;DHT22;23184;51.902;12.836;2022-08-24T06:52:17;19.00;99.90
37300;DHT22;23184;51.902;12.836;2022-08-24T06:54:42;19.10;99.90
37300;DHT22;23184;51.902;12.836;2022-08-24T06:57:08;19.20;99.90
37300;DHT22;23184;51.902;12.836;2022-08-24T06:59:33;19.50;99.90
37300;DHT22;23184;51.902;12.836;2022-08-24T07:01:59;19.60;99.90
37300;DHT22;23184;51.902;12.836;2022-08-24T07:04:26;19.70;99.90
37300;DHT22;23184;51.902;12.836;2022-08-24T07:06:52;19.90;99.90
37300;DHT22;23184;51.902;12.836;2022-08-24T07:09:19;20.00;99.90
37300;DHT22;23184;51.902;12.836;2022-08-24T07:11:45;20.20;99.90
37300;DHT22;23184;51.902;12.836;2022-08-24T07:14:12;20.30;99.90
37300;DHT22;23184;51.902;12.836;2022-08-24T07:16:38;20.50;99.90
37300;DHT22;23184;51.902;12.836;2022-08-24T07:19:04;20.60;99.90
37300;DHT22;23184;51.902;12.836;2022-08-24T07:21:31;20.60;99.90
37300;DHT22;23184;51.902;12.836;2022-08-24T07:23:58;20.70;99.90
37300;DHT22;23184;51.902;12.836;2022-08-24T07:26:25;20.90;99.90
37300;DHT22;23184;51.902;12.836;2022-08-24T07:29:01;21.10;99.90
37300;DHT22;23184;51.902;12.836;2022-08-24T07:31:34;21.40;99.90
37300;DHT22;23184;51.902;12.836;2022-08-24T07:34:00;21.80;99.90
37300;DHT22;23184;51.902;12.836;2022-08-24T07:36:27;22.40;99.90
37300;DHT22;23184;51.902;12.836;2022-08-24T07:38:52;23.20;99.90
37300;DHT22;23184;51.902;12.836;2022-08-24T07:41:22;23.60;99.90
37300;DHT22;23184;51.902;12.836;2022-08-24T07:43:50;23.50;99.90
37300;DHT22;23184;51.902;12.836;2022-08-24T07:46:15;23.70;99.90
37300;DHT22;23184;51.902;12.836;2022-08-24T07:48:42;24.10;99.90
37300;DHT22;23184;51.902;12.836;2022-08-24T07:51:10;24.60;99.90
37300;DHT22;23184;51.902;12.836;2022-08-24T07:53:37;24.70;99.90
37300;DHT22;23184;51.902;12.836;2022-08-24T07:56:02;25.10;99.90
37300;DHT22;23184;51.902;12.836;2022-08-24T07:58:28;25.40;99.90
37300;DHT22;23184;51.902;12.836;2022-08-24T08:00:54;25.60;99.90
37300;DHT22;23184;51.902;12.836;2022-08-24T08:03:19;25.90;99.90
37300;DHT22;23184;51.902;12.836;2022-08-24T08:05:46;26.10;99.90
37300;DHT22;23184;51.902;12.836;2022-08-24T08:08:11;26.40;99.90
37300;DHT22;23184;51.902;12.836;2022-08-24T08:10:37;26.80;99.90
37300;DHT22;23184;51.902;12.836;2022-08-24T08:13:03;27.20;99.90
37300;DHT22;23184;51.902;12.836;2022-08-24T08:15:29;27.20;99.90
37300;DHT22;23184;51.902;12.836;2022-08-24T08:17:56;27.30;99.90
37300;DHT22;23184;51.902;12.836;2022-08-24T08:20:22;27.40;99.90
37300;DHT22;23184;51.902;12.836;2022-08-24T08:22:47;27.40;99.90
37300;DHT22;23184;51.902;12.836;2022-08-24T08:25:31;27.40;99.90
37300;DHT22;23184;51.902;12.836;2022-08-24T08:27:57;27.20;99.90
37300;DHT22;23184;51.902;12.836;2022-08-24T08:30:22;27.70;99.90
37300;DHT22;23184;51.902;12.836;2022-08-24T08:32:48;28.20;99.90
37300;DHT22;23184;51.902;12.836;2022-08-24T08:35:14;28.40;99.90
37300;DHT22;23184;51.902;12.836;2022-08-24T08:37:40;28.30;99.90
37300;DHT22;23184;51.902;12.836;2022-08-24T08:40:08;28.70;99.90
37300;DHT22;23184;51.902;12.836;2022-08-24T08:42:59;29.40;99.90
37300;DHT22;23184;51.902;12.836;2022-08-24T08:46:14;29.40;99.90
37300;DHT22;23184;51.902;12.836;2022-08-24T08:54:35;28.50;99.90
37300;DHT22;23184;51.902;12.836;2022-08-24T09:10:24;32.30;99.90
37300;DHT22;23184;51.902;12.836;2022-08-24T09:15:59;31.60;99.90
37300;DHT22;23184;51.902;12.836;2022-08-24T09:32:54;32.30;99.90
37300;DHT22;23184;51.902;12.836;2022-08-24T09:35:31;32.20;99.90
37300;DHT22;23184;51.902;12.836;2022-08-24T09:38:16;32.40;99.90
37300;DHT22;23184;51.902;12.836;2022-08-24T09:49:58;35.50;99.90
37300;DHT22;23184;51.902;12.836;2022-08-24T09:58:16;36.80;99.90
37300;DHT22;23184;51.902;12.836;2022-08-24T10:03:48;36.40;99.20
37300;DHT22;23184;51.902;12.836;2022-08-24T10:06:36;36.70;98.60
37300;DHT22;23184;51.902;12.836;2022-08-24T10:09:18;37.20;96.30
37300;DHT22;23184;51.902;12.836;2022-08-24T10:12:11;37.00;96.30
37300;DHT22;23184;51.902;12.836;2022-08-24T10:14:57;37.60;96.50
37300;DHT22;23184;51.902;12.836;2022-08-24T10:22:33;38.50;92.40
37300;DHT22;23184;51.902;12.836;2022-08-24T10:27:45;38.60;91.40
37300;DHT22;23184;51.902;12.836;2022-08-24T10:30:39;38.70;91.40
37300;DHT22;23184;51.902;12.836;2022-08-24T10:33:26;38.60;89.20
37300;DHT22;23184;51.902;12.836;2022-08-24T10:36:13;39.30;90.40
37300;DHT22;23184;51.902;12.836;2022-08-24T10:38:59;39.80;89.30
37300;DHT22;23184;51.902;12.836;2022-08-24T10:44:47;39.70;88.80
37300;DHT22;23184;51.902;12.836;2022-08-24T10:47:23;39.10;87.30
37300;DHT22;23184;51.902;12.836;2022-08-24T10:50:19;38.90;88.60
37300;DHT22;23184;51.902;12.836;2022-08-24T10:52:48;37.70;88.10
37300;DHT22;23184;51.902;12.836;2022-08-24T10:55:27;36.50;90.20
37300;DHT22;23184;51.902;12.836;2022-08-24T10:58:31;35.20;91.40
37300;DHT22;23184;51.902;12.836;2022-08-24T11:01:25;33.70;93.20
37300;DHT22;23184;51.902;12.836;2022-08-24T11:03:54;32.40;93.90
37300;DHT22;23184;51.902;12.836;2022-08-24T11:06:22;32.70;94.50
37300;DHT22;23184;51.902;12.836;2022-08-24T11:08:55;33.30;94.50
37300;DHT22;23184;51.902;12.836;2022-08-24T11:11:24;33.80;94.60
37300;DHT22;23184;51.902;12.836;2022-08-24T11:14:04;34.80;93.60
37300;DHT22;23184;51.902;12.836;2022-08-24T11:16:31;35.90;93.30
37300;DHT22;23184;51.902;12.836;2022-08-24T11:19:00;36.30;91.90
37300;DHT22;23184;51.902;12.836;2022-08-24T11:22:25;37.10;91.60
37300;DHT22;23184;51.902;12.836;2022-08-24T11:25:01;37.60;90.30
37300;DHT22;23184;51.902;12.836;2022-08-24T11:27:32;37.70;90.20
37300;DHT22;23184;51.902;12.836;2022-08-24T11:30:11;37.90;90.20
37300;DHT22;23184;51.902;12.836;2022-08-24T11:38:17;39.20;87.50
37300;DHT22;23184;51.902;12.836;2022-08-24T11:40:49;39.30;85.30
37300;DHT22;23184;51.902;12.836;2022-08-24T11:43:44;39.70;85.70
37300;DHT22;23184;51.902;12.836;2022-08-24T11:46:17;39.70;83.50
37300;DHT22;23184;51.902;12.836;2022-08-24T11:51:49;39.60;83.20
37300;DHT22;23184;51.902;12.836;2022-08-24T11:57:15;39.80;82.60
37300;DHT22;23184;51.902;12.836;2022-08-24T11:59:54;40.00;81.90
37300;DHT22;23184;51.902;12.836;2022-08-24T12:05:42;39.80;81.00
37300;DHT22;23184;51.902;12.836;2022-08-24T12:08:23;39.90;80.30
37300;DHT22;23184;51.902;12.836;2022-08-24T12:13:56;40.30;78.70
37300;DHT22;23184;51.902;12.836;2022-08-24T12:16:41;40.60;78.30
37300;DHT22;23184;51.902;12.836;2022-08-24T12:19:23;40.80;78.00
37300;DHT22;23184;51.902;12.836;2022-08-24T12:21:54;40.80;76.60
37300;DHT22;23184;51.902;12.836;2022-08-24T12:24:30;41.10;76.70
37300;DHT22;23184;51.902;12.836;2022-08-24T12:27:02;41.50;75.80
37300;DHT22;23184;51.902;12.836;2022-08-24T12:29:46;41.70;75.00
37300;DHT22;23184;51.902;12.836;2022-08-24T12:32:20;41.80;73.80
37300;DHT22;23184;51.902;12.836;2022-08-24T12:37:30;41.50;72.50
37300;DHT22;23184;51.902;12.836;2022-08-24T12:42:39;42.10;71.50
37300;DHT22;23184;51.902;12.836;2022-08-24T12:45:11;41.80;69.40
37300;DHT22;23184;51.902;12.836;2022-08-24T12:47:57;41.40;69.60
37300;DHT22;23184;51.902;12.836;2022-08-24T13:00:54;42.10;69.80
37300;DHT22;23184;51.902;12.836;2022-08-24T13:03:30;42.20;67.30
37300;DHT22;23184;51.902;12.836;2022-08-24T13:05:58;41.70;66.80
37300;DHT22;23184;51.902;12.836;2022-08-24T13:08:40;41.80;67.30
37300;DHT22;23184;51.902;12.836;2022-08-24T13:16:09;42.80;66.50
37300;DHT22;23184;51.902;12.836;2022-08-24T13:18:50;42.50;65.00
37300;DHT22;23184;51.902;12.836;2022-08-24T13:21:36;42.10;65.40
37300;DHT22;23184;51.902;12.836;2022-08-24T13:25:20;42.10;65.30
37300;DHT22;23184;51.902;12.836;2022-08-24T13:32:34;41.00;65.60
37300;DHT22;23184;51.902;12.836;2022-08-24T13:35:33;40.60;65.50
37300;DHT22;23184;51.902;12.836;2022-08-24T13:38:30;41.10;65.00
37300;DHT22;23184;51.902;12.836;2022-08-24T13:41:09;41.30;65.40
37300;DHT22;23184;51.902;12.836;2022-08-24T13:43:43;41.90;65.40
37300;DHT22;23184;51.902;12.836;2022-08-24T13:46:19;41.70;64.30
37300;DHT22;23184;51.902;12.836;2022-08-24T13:49:26;41.60;65.30
37300;DHT22;23184;51.902;12.836;2022-08-24T14:09:02;36.60;71.10
37300;DHT22;23184;51.902;12.836;2022-08-24T14:11:46;35.60;73.40
37300;DHT22;23184;51.902;12.836;2022-08-24T14:14:17;35.80;74.60
37300;DHT22;23184;51.902;12.836;2022-08-24T14:16:51;36.10;74.10
37300;DHT22;23184;51.902;12.836;2022-08-24T14:20:11;36.80;72.70
37300;DHT22;23184;51.902;12.836;2022-08-24T14:23:02;37.90;72.20
37300;DHT22;23184;51.902;12.836;2022-08-24T14:25:32;38.70;70.70
37300;DHT22;23184;51.902;12.836;2022-08-24T14:38:03;39.30;68.40
37300;DHT22;23184;51.902;12.836;2022-08-24T14:40:34;39.30;68.70
37300;DHT22;23184;51.902;12.836;2022-08-24T14:43:33;39.40;69.50
37300;DHT22;23184;51.902;12.836;2022-08-24T14:49:10;38.90;69.70
37300;DHT22;23184;51.902;12.836;2022-08-24T14:54:48;37.40;71.20
37300;DHT22;23184;51.902;12.836;2022-08-24T15:05:23;37.60;70.70
37300;DHT22;23184;51.902;12.836;2022-08-24T15:08:05;37.70;71.40
37300;DHT22;23184;51.902;12.836;2022-08-24T15:13:36;37.70;72.00
37300;DHT22;23184;51.902;12.836;2022-08-24T15:16:10;38.00;71.50
37300;DHT22;23184;51.902;12.836;2022-08-24T15:29:53;37.20;71.80
37300;DHT22;23184;51.902;12.836;2022-08-24T15:32:20;36.50;72.50
37300;DHT22;23184;51.902;12.836;2022-08-24T15:34:54;35.60;74.60
37300;DHT22;23184;51.902;12.836;2022-08-24T15:37:35;34.50;76.40
37300;DHT22;23184;51.902;12.836;2022-08-24T15:40:04;34.30;77.90
37300;DHT22;23184;51.902;12.836;2022-08-24T15:42:36;33.80;78.10
37300;DHT22;23184;51.902;12.836;2022-08-24T15:45:03;33.50;79.10
37300;DHT22;23184;51.902;12.836;2022-08-24T15:47:34;33.40;78.80
37300;DHT22;23184;51.902;12.836;2022-08-24T15:50:06;33.10;80.20
37300;DHT22;23184;51.902;12.836;2022-08-24T15:52:38;32.90;80.40
37300;DHT22;23184;51.902;12.836;2022-08-24T15:55:05;32.50;80.90
37300;DHT22;23184;51.902;12.836;2022-08-24T15:57:40;32.20;81.50
37300;DHT22;23184;51.902;12.836;2022-08-24T16:00:16;32.00;82.40
37300;DHT22;23184;51.902;12.836;2022-08-24T16:05:48;32.00;82.90
37300;DHT22;23184;51.902;12.836;2022-08-24T16:08:14;31.80;83.50
37300;DHT22;23184;51.902;12.836;2022-08-24T16:16:00;31.20;85.20
37300;DHT22;23184;51.902;12.836;2022-08-24T16:21:23;30.50;87.70
37300;DHT22;23184;51.902;12.836;2022-08-24T16:23:58;30.40;88.50
37300;DHT22;23184;51.902;12.836;2022-08-24T16:26:32;30.40;88.40
37300;DHT22;23184;51.902;12.836;2022-08-24T16:28:58;30.20;89.10
37300;DHT22;23184;51.902;12.836;2022-08-24T16:34:26;29.90;90.10
37300;DHT22;23184;51.902;12.836;2022-08-24T16:36:53;29.70;90.30
37300;DHT22;23184;51.902;12.836;2022-08-24T16:39:19;29.60;90.40
37300;DHT22;23184;51.902;12.836;2022-08-24T16:41:45;29.50;90.90
37300;DHT22;23184;51.902;12.836;2022-08-24T16:44:11;29.50;91.20
37300;DHT22;23184;51.902;12.836;2022-08-24T16:46:38;29.40;91.40
37300;DHT22;23184;51.902;12.836;2022-08-24T16:49:04;29.30;91.50
37300;DHT22;23184;51.902;12.836;2022-08-24T16:51:29;29.10;91.50
37300;DHT22;23184;51.902;12.836;2022-08-24T16:53:55;28.90;91.80
37300;DHT22;23184;51.902;12.836;2022-08-24T16:56:20;28.90;92.20
37300;DHT22;23184;51.902;12.836;2022-08-24T16:58:47;28.90;92.40
37300;DHT22;23184;51.902;12.836;2022-08-24T17:01:13;29.00;92.50
37300;DHT22;23184;51.902;12.836;2022-08-24T17:03:39;28.90;92.70
37300;DHT22;23184;51.902;12.836;2022-08-24T17:06:05;28.80;92.70
37300;DHT22;23184;51.902;12.836;2022-08-24T17:08:31;28.60;93.10
37300;DHT22;23184;51.902;12.836;2022-08-24T17:10:56;28.60;93.20
37300;DHT22;23184;51.902;12.836;2022-08-24T17:13:22;28.50;93.40
37300;DHT22;23184;51.902;12.836;2022-08-24T17:15:48;28.50;93.70
37300;DHT22;23184;51.902;12.836;2022-08-24T17:18:14;28.40;94.00
37300;DHT22;23184;51.902;12.836;2022-08-24T17:20:44;28.20;94.20
37300;DHT22;23184;51.902;12.836;2022-08-24T17:23:10;28.20;94.50
37300;DHT22;23184;51.902;12.836;2022-08-24T17:25:36;28.00;94.60
37300;DHT22;23184;51.902;12.836;2022-08-24T17:28:04;27.90;95.20
37300;DHT22;23184;51.902;12.836;2022-08-24T17:30:31;27.80;95.40
37300;DHT22;23184;51.902;12.836;2022-08-24T17:32:56;27.60;95.80
37300;DHT22;23184;51.902;12.836;2022-08-24T17:35:22;27.50;96.50
37300;DHT22;23184;51.902;12.836;2022-08-24T17:37:49;27.40;96.90
37300;DHT22;23184;51.902;12.836;2022-08-24T17:40:19;27.20;97.40
37300;DHT22;23184;51.902;12.836;2022-08-24T17:42:46;27.10;97.90
37300;DHT22;23184;51.902;12.836;2022-08-24T17:45:11;26.90;98.30
37300;DHT22;23184;51.902;12.836;2022-08-24T17:47:38;26.90;98.70
37300;DHT22;23184;51.902;12.836;2022-08-24T17:50:04;26.80;99.20
37300;DHT22;23184;51.902;12.836;2022-08-24T17:52:34;26.70;99.70
37300;DHT22;23184;51.902;12.836;2022-08-24T17:55:00;26.60;99.90
37300;DHT22;23184;51.902;12.836;2022-08-24T17:57:26;26.50;99.90
37300;DHT22;23184;51.902;12.836;2022-08-24T17:59:51;26.40;99.90
37300;DHT22;23184;51.902;12.836;2022-08-24T18:02:18;26.30;99.90
37300;DHT22;23184;51.902;12.836;2022-08-24T18:04:43;26.30;99.90
37300;DHT22;23184;51.902;12.836;2022-08-24T18:07:12;26.10;99.90
37300;DHT22;23184;51.902;12.836;2022-08-24T18:09:47;26.10;99.90
37300;DHT22;23184;51.902;12.836;2022-08-24T18:12:15;26.00;99.90
37300;DHT22;23184;51.902;12.836;2022-08-24T18:14:41;25.90;99.90
37300;DHT22;23184;51.902;12.836;2022-08-24T18:17:11;25.80;99.90
37300;DHT22;23184;51.902;12.836;2022-08-24T18:19:38;25.70;99.90
37300;DHT22;23184;51.902;12.836;2022-08-24T18:22:04;25.60;99.90
37300;DHT22;23184;51.902;12.836;2022-08-24T18:24:30;25.50;99.90
37300;DHT22;23184;51.902;12.836;2022-08-24T18:27:06;25.50;99.90
37300;DHT22;23184;51.902;12.836;2022-08-24T18:29:32;25.40;99.90
37300;DHT22;23184;51.902;12.836;2022-08-24T18:31:58;25.30;99.90
37300;DHT22;23184;51.902;12.836;2022-08-24T18:34:25;25.20;99.90
37300;DHT22;23184;51.902;12.836;2022-08-24T18:36:51;25.10;99.90